createdAt,value
2023-02-12T00:01:33.716Z,45.81
2023-02-12T00:04:23.783Z,45.90
2023-02-12T00:07:12.444Z,45.92
2023-02-12T00:10:01.098Z,45.91
2023-02-12T00:12:49.831Z,46.14
2023-02-12T00:15:40.496Z,46.53
2023-02-12T00:18:29.203Z,45.89
2023-02-12T00:21:19.341Z,46.02
2023-02-12T00:24:08.309Z,45.99
2023-02-12T00:26:56.977Z,45.70
2023-02-12T00:29:45.590Z,45.86
2023-02-12T00:32:34.207Z,45.83
2023-02-12T00:35:22.851Z,46.14
2023-02-12T00:38:12.886Z,46.07
2023-02-12T00:41:01.543Z,46.27
2023-02-12T00:43:50.328Z,46.31
2023-02-12T00:46:39.089Z,46.22
2023-02-12T00:49:27.927Z,46.23
2023-02-12T00:52:16.686Z,46.16
2023-02-12T00:55:07.427Z,46.27
2023-02-12T00:57:56.127Z,46.03
2023-02-12T01:00:44.789Z,46.01
2023-02-12T01:03:33.476Z,45.99
2023-02-12T01:06:22.501Z,46.48
2023-02-12T01:09:11.120Z,46.35
2023-02-12T01:12:01.166Z,46.22
2023-02-12T01:14:49.954Z,46.17
2023-02-12T01:17:38.893Z,46.09
2023-02-12T01:20:27.888Z,46.40
2023-02-12T01:23:16.569Z,46.26
2023-02-12T01:26:07.454Z,46.37
2023-02-12T01:28:59.071Z,46.73
2023-02-12T01:31:47.862Z,46.66
2023-02-12T01:34:36.528Z,46.48
2023-02-12T01:37:25.218Z,46.59
2023-02-12T01:40:17.003Z,46.16
2023-02-12T01:43:06.125Z,46.51
2023-02-12T01:45:56.585Z,46.58
2023-02-12T01:48:47.217Z,46.17
2023-02-12T01:51:36.782Z,46.59
2023-02-12T01:54:26.863Z,46.43
2023-02-12T01:57:16.240Z,46.33
2023-02-12T02:00:09.812Z,46.23
2023-02-12T02:03:02.137Z,46.68
2023-02-12T02:05:56.981Z,46.17
2023-02-12T02:08:45.942Z,46.55
2023-02-12T02:11:52.372Z,46.28
2023-02-12T02:14:42.971Z,46.69
2023-02-12T02:17:39.434Z,46.76
2023-02-12T02:20:43.932Z,46.99
2023-02-12T02:23:43.928Z,46.68
2023-02-12T02:26:56.324Z,46.85
2023-02-12T02:30:23.357Z,46.80
2023-02-12T02:33:31.320Z,46.60
2023-02-12T02:36:27.888Z,46.56
2023-02-12T02:39:20.994Z,46.59
2023-02-12T02:42:12.945Z,46.73
2023-02-12T02:45:08.618Z,47.03
2023-02-12T02:48:01.420Z,46.73
2023-02-12T02:50:54.993Z,46.67
2023-02-12T02:53:46.730Z,46.95
2023-02-12T02:56:37.922Z,46.77
2023-02-12T02:59:29.148Z,46.50
2023-02-12T03:02:21.193Z,46.77
2023-02-12T03:05:12.178Z,46.83
2023-02-12T03:08:05.498Z,46.68
2023-02-12T03:10:57.372Z,46.81
2023-02-12T03:13:49.602Z,46.85
2023-02-12T03:16:47.498Z,46.82
2023-02-12T03:19:39.118Z,46.78
2023-02-12T03:22:30.587Z,46.75
2023-02-12T03:25:23.400Z,47.04
2023-02-12T03:28:16.944Z,46.86
2023-02-12T03:31:10.520Z,46.60
2023-02-12T03:34:07.775Z,46.65
2023-02-12T03:36:58.974Z,46.92
2023-02-12T03:39:53.302Z,46.66
2023-02-12T03:42:47.998Z,46.96
2023-02-12T03:45:42.433Z,46.67
2023-02-12T03:48:35.759Z,47.30
2023-02-12T03:51:27.359Z,47.07
2023-02-12T03:54:18.596Z,47.32
2023-02-12T03:57:10.329Z,47.08
2023-02-12T04:00:00.897Z,46.60
2023-02-12T04:02:50.050Z,47.16
2023-02-12T04:05:38.682Z,47.14
2023-02-12T04:08:29.150Z,47.04
2023-02-12T04:11:26.471Z,47.12
2023-02-12T04:14:24.637Z,46.78
2023-02-12T04:17:23.096Z,47.21
2023-02-12T04:20:16.910Z,47.15
2023-02-12T04:23:12.814Z,47.04
2023-02-12T04:26:10.748Z,46.87
2023-02-12T04:29:11.126Z,47.16
2023-02-12T04:32:06.734Z,47.20
2023-02-12T04:34:59.568Z,46.81
2023-02-12T04:37:50.437Z,47.24
2023-02-12T04:40:40.801Z,46.81
2023-02-12T04:43:31.023Z,46.93
2023-02-12T04:46:19.755Z,47.42
2023-02-12T04:49:08.687Z,46.93
2023-02-12T04:51:58.797Z,47.06
2023-02-12T04:54:47.564Z,46.80
2023-02-12T04:57:36.315Z,47.33
2023-02-12T05:00:25.207Z,47.06
2023-02-12T05:03:13.830Z,47.04
2023-02-12T05:06:04.921Z,47.07
2023-02-12T05:08:55.709Z,47.17
2023-02-12T05:11:44.504Z,46.98
2023-02-12T05:14:33.138Z,46.92
2023-02-12T05:17:23.700Z,46.93
2023-02-12T05:20:13.209Z,47.32
2023-02-12T05:23:01.820Z,47.14
2023-02-12T05:25:51.739Z,47.29
2023-02-12T05:28:40.464Z,46.99
2023-02-12T05:31:29.342Z,47.18
2023-02-12T05:34:18.226Z,47.01
2023-02-12T05:37:06.874Z,47.06
2023-02-12T05:39:55.541Z,46.92
2023-02-12T05:42:45.545Z,47.05
2023-02-12T05:45:34.355Z,47.00
2023-02-12T05:48:23.009Z,46.79
2023-02-12T05:51:14.230Z,46.77
2023-02-12T05:54:04.576Z,46.88
2023-02-12T05:56:53.253Z,46.89
2023-02-12T05:59:43.295Z,46.77
2023-02-12T06:02:32.064Z,47.14
2023-02-12T06:05:20.726Z,47.16
2023-02-12T06:08:09.459Z,47.26
2023-02-12T06:11:02.346Z,46.94
2023-02-12T06:13:51.372Z,46.71
2023-02-12T06:16:41.755Z,46.85
2023-02-12T06:19:30.561Z,46.69
2023-02-12T06:22:19.211Z,46.96
2023-02-12T06:25:08.619Z,46.87
2023-02-12T06:27:57.332Z,47.10
2023-02-12T06:30:46.144Z,46.87
2023-02-12T06:33:36.336Z,46.98
2023-02-12T06:36:26.006Z,47.10
2023-02-12T06:39:15.894Z,47.19
2023-02-12T06:42:04.665Z,47.09
2023-02-12T06:44:53.285Z,47.41
2023-02-12T06:47:42.009Z,47.04
2023-02-12T06:50:32.190Z,47.14
2023-02-12T06:53:20.922Z,46.99
2023-02-12T06:56:11.654Z,47.22
2023-02-12T06:59:01.123Z,47.19
2023-02-12T07:01:49.756Z,47.08
2023-02-12T07:04:39.661Z,47.24
2023-02-12T07:07:29.695Z,46.98
2023-02-12T07:10:18.731Z,47.08
2023-02-12T07:13:07.408Z,46.95
2023-02-12T07:15:56.317Z,47.01
2023-02-12T07:18:46.564Z,46.96
2023-02-12T07:21:35.304Z,47.35
2023-02-12T07:24:25.382Z,47.23
2023-02-12T07:27:13.958Z,47.53
2023-02-12T07:30:02.634Z,47.38
2023-02-12T07:32:51.225Z,47.38
2023-02-12T07:35:39.907Z,47.63
2023-02-12T07:38:28.628Z,47.30
2023-02-12T07:41:20.880Z,47.12
2023-02-12T07:44:12.493Z,47.26
2023-02-12T07:47:01.132Z,47.26
2023-02-12T07:49:49.658Z,47.38
2023-02-12T07:52:38.227Z,47.35
2023-02-12T07:55:26.886Z,47.43
2023-02-12T07:58:16.797Z,47.34
2023-02-12T08:01:13.846Z,47.11
2023-02-12T08:04:04.196Z,47.69
2023-02-12T08:06:54.727Z,47.64
2023-02-12T08:09:43.406Z,47.31
2023-02-12T08:12:31.942Z,47.67
2023-02-12T08:15:21.935Z,47.29
2023-02-12T08:18:10.485Z,47.83
2023-02-12T08:21:03.904Z,47.60
2023-02-12T08:23:53.049Z,47.53
2023-02-12T08:26:41.696Z,47.33
2023-02-12T08:29:31.527Z,46.58
2023-02-12T08:32:21.579Z,46.98
2023-02-12T08:35:10.231Z,46.67
2023-02-12T08:37:58.840Z,46.33
2023-02-12T08:40:47.551Z,46.24
2023-02-12T08:43:36.349Z,46.56
2023-02-12T08:46:26.503Z,46.47
2023-02-12T08:49:17.796Z,45.72
2023-02-12T08:52:06.524Z,46.17
2023-02-12T08:54:55.311Z,46.02
2023-02-12T08:57:44.214Z,45.78
2023-02-12T09:00:32.927Z,46.18
2023-02-12T09:03:21.647Z,46.38
2023-02-12T09:06:12.118Z,46.27
2023-02-12T09:09:00.928Z,45.44
2023-02-12T09:11:49.962Z,44.19
2023-02-12T09:14:38.603Z,44.05
2023-02-12T09:17:27.817Z,43.45
2023-02-12T09:20:16.668Z,43.45
2023-02-12T09:23:06.945Z,43.28
2023-02-12T09:25:56.342Z,42.88
2023-02-12T09:28:45.329Z,42.52
2023-02-12T09:31:34.979Z,42.86
2023-02-12T09:34:23.675Z,42.54
2023-02-12T09:37:12.368Z,42.27
2023-02-12T09:40:02.291Z,42.48
2023-02-12T09:43:06.389Z,42.04
2023-02-12T09:46:00.236Z,42.03
2023-02-12T09:48:56.490Z,41.79
2023-02-12T09:51:50.993Z,41.66
2023-02-12T09:54:42.549Z,41.95
2023-02-12T09:57:35.715Z,41.55
2023-02-12T10:00:31.362Z,41.68
2023-02-12T10:03:20.282Z,41.78
2023-02-12T10:06:17.174Z,42.04
2023-02-12T10:09:17.317Z,42.40
2023-02-12T10:12:09.663Z,42.26
2023-02-12T10:15:07.137Z,42.79
2023-02-12T10:18:03.640Z,42.81
2023-02-12T10:21:00.275Z,43.05
2023-02-12T10:24:03.408Z,43.57
2023-02-12T10:26:54.714Z,44.10
2023-02-12T10:29:44.931Z,43.98
2023-02-12T10:32:37.013Z,44.28
2023-02-12T10:35:26.030Z,44.01
2023-02-12T10:38:19.621Z,43.73
2023-02-12T10:41:08.416Z,42.98
2023-02-12T10:43:57.510Z,42.89
2023-02-12T10:46:46.369Z,42.85
2023-02-12T10:49:36.823Z,42.76
2023-02-12T10:52:34.943Z,42.60
2023-02-12T10:55:30.939Z,42.83
2023-02-12T10:58:23.087Z,42.51
2023-02-12T11:01:18.627Z,42.65
2023-02-12T11:04:22.169Z,42.74
2023-02-12T11:07:12.145Z,42.74
2023-02-12T11:10:01.045Z,42.81
2023-02-12T11:12:49.681Z,43.11
2023-02-12T11:15:48.190Z,43.08
2023-02-12T11:18:37.954Z,43.18
2023-02-12T11:21:26.646Z,43.12
2023-02-12T11:24:34.381Z,43.21
2023-02-12T11:27:25.429Z,43.01
2023-02-12T11:30:19.703Z,43.15
2023-02-12T11:33:17.579Z,42.76
2023-02-12T11:36:13.576Z,42.55
2023-02-12T11:39:03.159Z,42.65
2023-02-12T11:41:56.221Z,42.89
2023-02-12T11:44:50.635Z,43.36
2023-02-12T11:47:42.893Z,44.23
2023-02-12T11:50:34.009Z,44.16
2023-02-12T11:53:26.583Z,43.90
2023-02-12T11:56:16.413Z,44.33
2023-02-12T11:59:19.991Z,43.88
2023-02-12T12:02:28.084Z,43.96
2023-02-12T12:05:21.343Z,43.96
2023-02-12T12:08:29.123Z,43.82
2023-02-12T12:11:22.950Z,44.18
2023-02-12T12:14:19.689Z,44.84
2023-02-12T12:17:32.239Z,41.50
2023-02-12T12:20:24.810Z,43.99
2023-02-12T12:23:18.162Z,44.47
2023-02-12T12:26:10.876Z,44.15
2023-02-12T12:29:06.492Z,42.20
2023-02-12T12:32:00.257Z,42.32
2023-02-12T12:34:49.514Z,42.25
2023-02-12T12:37:40.376Z,42.38
2023-02-12T12:40:45.236Z,42.18
2023-02-12T12:43:42.453Z,42.33
2023-02-12T12:46:43.583Z,42.99
2023-02-12T12:49:55.000Z,42.37
2023-02-12T12:52:59.533Z,41.79
2023-02-12T12:56:05.563Z,41.83
2023-02-12T12:59:17.329Z,41.72
2023-02-12T13:02:46.352Z,41.48
2023-02-12T13:05:58.513Z,41.65
2023-02-12T13:09:10.454Z,41.85
2023-02-12T13:12:30.363Z,42.01
2023-02-12T13:15:26.489Z,42.12
2023-02-12T13:18:22.989Z,42.07
2023-02-12T13:21:18.378Z,41.85
2023-02-12T13:24:17.784Z,41.84
2023-02-12T13:27:12.908Z,41.92
2023-02-12T13:30:05.846Z,41.77
2023-02-12T13:33:04.290Z,41.72
2023-02-12T13:36:00.237Z,41.82
2023-02-12T13:38:54.915Z,42.83
2023-02-12T13:41:49.760Z,43.12
2023-02-12T13:44:44.549Z,42.17
2023-02-12T13:47:40.925Z,41.59
2023-02-12T13:50:42.004Z,42.07
2023-02-12T13:53:37.574Z,41.95
2023-02-12T13:56:35.589Z,42.28
2023-02-12T13:59:50.367Z,41.49
2023-02-12T14:02:59.206Z,42.13
2023-02-12T14:06:10.998Z,42.27
2023-02-12T14:20:14.407Z,41.95
2023-02-12T14:23:25.329Z,42.16
2023-02-12T14:26:19.374Z,42.31
2023-02-12T14:29:21.702Z,42.35
2023-02-12T14:32:58.937Z,42.33
2023-02-12T14:36:33.170Z,42.85
2023-02-12T14:39:34.648Z,42.60
2023-02-12T14:42:46.977Z,42.40
2023-02-12T14:45:38.534Z,42.41
2023-02-12T14:48:53.032Z,42.51
2023-02-12T14:51:49.970Z,43.42
2023-02-12T14:54:51.777Z,42.81
2023-02-12T14:57:44.648Z,42.84
2023-02-12T15:12:21.175Z,42.61
2023-02-12T16:22:22.742Z,43.42
2023-02-12T16:30:15.120Z,43.35
2023-02-12T16:33:38.593Z,43.28
2023-02-12T16:36:36.762Z,43.42
2023-02-12T16:40:07.304Z,43.03
2023-02-12T16:43:26.826Z,42.88
2023-02-12T16:46:22.843Z,43.11
2023-02-12T16:49:17.952Z,43.30
2023-02-12T16:52:23.203Z,43.39
2023-02-12T16:55:19.731Z,43.47
2023-02-12T16:58:11.800Z,43.41
2023-02-12T17:01:08.192Z,43.05
2023-02-12T17:04:31.298Z,43.35
2023-02-12T17:07:24.396Z,43.20
2023-02-12T17:10:24.904Z,42.95
2023-02-12T17:13:14.587Z,43.13
2023-02-12T17:16:12.709Z,43.04
2023-02-12T18:24:16.138Z,45.60
2023-02-12T18:27:05.744Z,45.23
2023-02-12T18:29:59.408Z,45.23
2023-02-12T18:32:48.926Z,45.42
2023-02-12T18:38:51.076Z,44.89
2023-02-12T18:41:41.168Z,44.77
2023-02-12T18:44:30.888Z,45.08
2023-02-12T18:47:24.507Z,45.13
2023-02-12T18:50:42.571Z,45.02
2023-02-12T18:53:46.853Z,44.86
2023-02-12T19:00:20.402Z,45.33
2023-02-12T19:04:01.704Z,45.18
2023-02-12T19:06:59.232Z,44.83
2023-02-12T19:10:02.137Z,45.14
2023-02-12T19:12:53.418Z,45.15
2023-02-12T19:16:18.301Z,45.23
2023-02-12T19:20:05.417Z,45.27
2023-02-12T19:23:14.416Z,44.90
2023-02-12T19:26:07.275Z,44.75
2023-02-12T19:29:03.247Z,44.83
2023-02-12T19:31:52.906Z,44.55
2023-02-12T19:34:42.660Z,44.54
2023-02-12T19:37:33.283Z,44.54
2023-02-12T19:40:23.359Z,44.68
2023-02-12T19:43:13.415Z,44.87
2023-02-12T19:46:11.665Z,45.08
2023-02-12T19:49:27.094Z,44.54
2023-02-12T19:56:20.744Z,44.89
2023-02-12T19:59:10.772Z,44.93
2023-02-12T20:02:03.019Z,45.67
2023-02-12T20:04:54.996Z,45.96
2023-02-12T20:07:45.339Z,45.94
2023-02-12T20:10:35.328Z,45.96
2023-02-12T20:13:59.896Z,45.86
2023-02-12T20:16:55.699Z,45.38
2023-02-12T20:19:48.367Z,45.62
2023-02-12T20:26:00.968Z,45.17
2023-02-12T20:28:52.445Z,44.95
2023-02-12T20:31:43.056Z,45.07
2023-02-12T20:34:49.050Z,44.92
2023-02-12T20:37:42.397Z,44.94
2023-02-12T20:40:32.894Z,45.01
2023-02-12T20:43:26.473Z,44.87
2023-02-12T20:46:17.626Z,44.78
2023-02-12T20:49:09.553Z,45.21
2023-02-12T20:51:58.960Z,45.36
2023-02-12T20:54:49.892Z,44.95
2023-02-12T20:57:40.071Z,44.76
2023-02-12T21:00:29.906Z,44.85
2023-02-12T21:03:20.774Z,45.04
2023-02-12T21:06:10.893Z,45.18
2023-02-12T21:09:01.733Z,45.04
2023-02-12T21:11:53.582Z,44.99
2023-02-12T21:14:49.115Z,45.55
2023-02-12T21:17:38.835Z,45.46
2023-02-12T21:20:28.820Z,44.94
2023-02-12T21:23:18.518Z,46.01
2023-02-12T21:26:15.892Z,46.10
2023-02-12T21:29:09.458Z,45.72
2023-02-12T21:36:42.463Z,45.76
2023-02-12T21:39:32.359Z,45.77
2023-02-12T21:42:48.224Z,46.20
2023-02-12T21:45:39.704Z,45.66
2023-02-12T21:48:29.692Z,45.81
2023-02-12T21:51:20.777Z,47.03
2023-02-12T21:54:11.856Z,46.06
2023-02-12T21:57:01.585Z,46.13
2023-02-12T22:00:12.116Z,46.23
2023-02-12T22:03:04.658Z,45.86
2023-02-12T22:05:56.090Z,46.68
2023-02-12T22:08:45.494Z,46.68
2023-02-12T22:11:36.138Z,46.38
2023-02-12T22:14:24.886Z,46.74
2023-02-12T22:17:14.203Z,45.99
2023-02-12T23:44:56.150Z,48.56
2023-02-12T23:48:10.943Z,48.59
